Main page
METAR-TAF:

METAR-TAF

Airports :

Jeddah, Saudi Arabia

King Abdulaziz International Airport

latitude: 21-42N, longitude: 039-11E, elevation: 15 m

Current weather observation

The report was made 55 minutes ago, at 08:00 UTC
Wind 22 kt from the South
Temperature 36°C
Humidity 29%
Pressure 1010 hPa
Visibility: 6000 m

METAR: OEJN 300800Z 18022KT 6000 NSC 36/15 Q1010 TEMPO 4000

Time: 11:55 (08:55 UTC)

Forecast

The report was made 3 hours and 55 minutes ago, at 05:00 UTC
Forecast valid from 30 at 06 UTC to 01 at 12 UTC
Wind 12 kt from the South/Southwest
Visibility 10 km or more
Scattered clouds at a height of 4000 ft
Probability 30% :
Temporary
from 30 at 06 UTC to 30 at 12 UTC
Few clouds at a height of 3500 ft, Cumulonimbus.
Becoming
from 30 at 12 UTC to 30 at 14 UTC
Wind 15 kt from the West

TAF: OEJN 300500Z 3006/0112 20012KT 9999 SCT040 PROB30 TEMPO 3006/3012 FEW035CB BECMG 3012/3014 27015KT

Weather observations and forecasts of more than 4000 airports (METAR and TAF reports).

The available stations are represented by yellow and red dots on the map.

Hover mouse over dot to see the name of the station.

Then click to see weather observations and forecasts.

To change the map : click on the green buttons with a black cross to zoom in, on the green button with a dash to zoom out, or on the green arrows for adjacent maps.


METAR-TAF: